Badan Meteorologi, Klimatologi, dan Geofisika

CUACA TERKINI BANDARA KUALANAMU

Rabu, 18 Juli 2018 03:07 UTC

Cuaca : Cerah - berawan

Angin : (dari) Tenggara, 5.6 km/jam

Jarak Pandang : >=10 km

Suhu : 29 °C

Waktu Pengamatan : 10:00 WIB

Selengkapnya>>>

DATA METEOROLOGI KUALANAMU

Data Metar Terbaru

WIMM 180300Z 12003KT 080V150 9999 FEW020 29/23 Q1007=

WIMM 180230Z 09003KT 9999 FEW020 28/23 Q1007=

WIMM 180130Z 00000KT 9999 SCT020 26/23 Q1007=

WIMM 180100Z 00000KT 9999 SCT020 25/23 Q1006=

WIMM 180030Z 17003KT 7000 SCT018 23/23 Q1007=

Selengkapnya>>>

Data TAF Terbaru

TAF WIMM 172300Z 1800/1900 17005KT 4500 HZ FEW016CB SCT018 BECMG 1802/1804 05010KT 9000 SCT018 BECMG 1811/1813 VRB03KT 4500 HZ =

Selengkapnya>>>

CITRA SATELIT

Enhanced
Citra Satelit
Cloud Type
Citra Satelit IR
Hotspot
Citra Satelit
Sebaran Asap
Citra Satelit